sensor_id;sensor_type;location;lat;lon;timestamp;temperature;humidity
70309;DHT22;57716;50.896;4.440;2023-02-01T00:01:49;7.70;99.90
70309;DHT22;57716;50.896;4.440;2023-02-01T00:04:15;7.60;99.90
70309;DHT22;57716;50.896;4.440;2023-02-01T00:06:41;7.50;99.90
70309;DHT22;57716;50.896;4.440;2023-02-01T00:09:07;7.50;99.90
70309;DHT22;57716;50.896;4.440;2023-02-01T00:11:33;7.60;99.90
70309;DHT22;57716;50.896;4.440;2023-02-01T00:13:59;7.60;99.90
70309;DHT22;57716;50.896;4.440;2023-02-01T00:16:27;7.70;99.90
70309;DHT22;57716;50.896;4.440;2023-02-01T00:19:00;7.70;99.90
70309;DHT22;57716;50.896;4.440;2023-02-01T00:21:26;7.80;99.90
70309;DHT22;57716;50.896;4.440;2023-02-01T00:23:52;7.80;99.90
70309;DHT22;57716;50.896;4.440;2023-02-01T00:26:25;7.80;99.90
70309;DHT22;57716;50.896;4.440;2023-02-01T00:28:53;7.90;99.90
70309;DHT22;57716;50.896;4.440;2023-02-01T00:31:18;7.90;99.90
70309;DHT22;57716;50.896;4.440;2023-02-01T00:33:47;7.90;99.90
70309;DHT22;57716;50.896;4.440;2023-02-01T00:36:13;8.00;99.90
70309;DHT22;57716;50.896;4.440;2023-02-01T00:38:38;8.00;99.90
70309;DHT22;57716;50.896;4.440;2023-02-01T00:41:05;8.00;99.90
70309;DHT22;57716;50.896;4.440;2023-02-01T00:43:32;7.90;99.90
70309;DHT22;57716;50.896;4.440;2023-02-01T00:45:58;7.90;99.90
70309;DHT22;57716;50.896;4.440;2023-02-01T00:48:24;7.80;99.90
70309;DHT22;57716;50.896;4.440;2023-02-01T00:50:50;7.90;99.90
70309;DHT22;57716;50.896;4.440;2023-02-01T00:53:15;8.00;99.90
70309;DHT22;57716;50.896;4.440;2023-02-01T00:55:45;7.90;99.90
70309;DHT22;57716;50.896;4.440;2023-02-01T00:58:11;7.90;99.90
70309;DHT22;57716;50.896;4.440;2023-02-01T01:00:37;7.90;99.90
70309;DHT22;57716;50.896;4.440;2023-02-01T01:03:03;7.80;99.90
70309;DHT22;57716;50.896;4.440;2023-02-01T01:05:45;7.80;99.90
70309;DHT22;57716;50.896;4.440;2023-02-01T01:08:12;7.70;99.90
70309;DHT22;57716;50.896;4.440;2023-02-01T01:10:38;7.60;99.90
70309;DHT22;57716;50.896;4.440;2023-02-01T01:13:04;7.60;99.90
70309;DHT22;57716;50.896;4.440;2023-02-01T01:15:30;7.60;99.90
70309;DHT22;57716;50.896;4.440;2023-02-01T01:17:55;7.70;99.90
70309;DHT22;57716;50.896;4.440;2023-02-01T01:20:21;7.80;99.90
70309;DHT22;57716;50.896;4.440;2023-02-01T01:22:47;7.80;99.90
70309;DHT22;57716;50.896;4.440;2023-02-01T01:25:13;7.80;99.90
70309;DHT22;57716;50.896;4.440;2023-02-01T01:27:39;7.90;99.90
70309;DHT22;57716;50.896;4.440;2023-02-01T01:30:06;7.80;99.90
70309;DHT22;57716;50.896;4.440;2023-02-01T01:32:33;7.80;99.90
70309;DHT22;57716;50.896;4.440;2023-02-01T01:34:58;7.70;99.90
70309;DHT22;57716;50.896;4.440;2023-02-01T01:37:24;7.70;99.90
70309;DHT22;57716;50.896;4.440;2023-02-01T01:39:50;7.70;99.90
70309;DHT22;57716;50.896;4.440;2023-02-01T01:42:15;7.80;99.90
70309;DHT22;57716;50.896;4.440;2023-02-01T01:47:37;7.80;99.90
70309;DHT22;57716;50.896;4.440;2023-02-01T01:50:07;7.70;99.90
70309;DHT22;57716;50.896;4.440;2023-02-01T01:52:33;7.70;99.90
70309;DHT22;57716;50.896;4.440;2023-02-01T01:54:59;7.70;99.90
70309;DHT22;57716;50.896;4.440;2023-02-01T01:57:32;7.60;99.90
70309;DHT22;57716;50.896;4.440;2023-02-01T02:00:19;7.60;99.90
70309;DHT22;57716;50.896;4.440;2023-02-01T02:02:47;7.50;99.90
70309;DHT22;57716;50.896;4.440;2023-02-01T02:05:15;7.50;99.90
70309;DHT22;57716;50.896;4.440;2023-02-01T02:07:46;7.40;99.90
70309;DHT22;57716;50.896;4.440;2023-02-01T02:10:13;7.20;99.90
70309;DHT22;57716;50.896;4.440;2023-02-01T02:12:41;7.30;99.90
70309;DHT22;57716;50.896;4.440;2023-02-01T02:15:09;7.20;99.90
70309;DHT22;57716;50.896;4.440;2023-02-01T02:17:54;7.20;99.90
70309;DHT22;57716;50.896;4.440;2023-02-01T02:31:39;6.90;99.90
70309;DHT22;57716;50.896;4.440;2023-02-01T02:34:24;6.90;99.90
70309;DHT22;57716;50.896;4.440;2023-02-01T02:45:34;6.70;99.90
70309;DHT22;57716;50.896;4.440;2023-02-01T02:51:28;6.60;99.90
70309;DHT22;57716;50.896;4.440;2023-02-01T02:54:16;6.70;99.90
70309;DHT22;57716;50.896;4.440;2023-02-01T02:57:04;6.60;99.90
70309;DHT22;57716;50.896;4.440;2023-02-01T02:59:51;6.60;99.90
70309;DHT22;57716;50.896;4.440;2023-02-01T03:02:37;6.60;99.90
70309;DHT22;57716;50.896;4.440;2023-02-01T03:05:22;6.60;99.90
70309;DHT22;57716;50.896;4.440;2023-02-01T03:07:55;6.60;99.90
70309;DHT22;57716;50.896;4.440;2023-02-01T03:10:42;6.60;99.90
70309;DHT22;57716;50.896;4.440;2023-02-01T03:15:59;6.50;99.90
70309;DHT22;57716;50.896;4.440;2023-02-01T03:20:59;6.60;99.90
70309;DHT22;57716;50.896;4.440;2023-02-01T03:23:28;6.50;99.90
70309;DHT22;57716;50.896;4.440;2023-02-01T03:25:56;6.50;99.90
70309;DHT22;57716;50.896;4.440;2023-02-01T03:28:25;6.60;99.90
70309;DHT22;57716;50.896;4.440;2023-02-01T03:30:52;6.60;99.90
70309;DHT22;57716;50.896;4.440;2023-02-01T03:33:21;6.60;99.90
70309;DHT22;57716;50.896;4.440;2023-02-01T03:36:15;6.60;99.90
70309;DHT22;57716;50.896;4.440;2023-02-01T03:39:03;6.60;99.90
70309;DHT22;57716;50.896;4.440;2023-02-01T03:41:42;6.50;99.90
70309;DHT22;57716;50.896;4.440;2023-02-01T03:46:49;6.60;99.90
70309;DHT22;57716;50.896;4.440;2023-02-01T03:49:24;6.60;99.90
70309;DHT22;57716;50.896;4.440;2023-02-01T03:51:51;6.60;99.90
70309;DHT22;57716;50.896;4.440;2023-02-01T03:54:18;6.50;99.90
70309;DHT22;57716;50.896;4.440;2023-02-01T03:56:46;6.50;99.90
70309;DHT22;57716;50.896;4.440;2023-02-01T03:59:13;6.50;99.90
70309;DHT22;57716;50.896;4.440;2023-02-01T04:01:40;6.50;99.90
70309;DHT22;57716;50.896;4.440;2023-02-01T04:04:06;6.50;99.90
70309;DHT22;57716;50.896;4.440;2023-02-01T04:06:32;6.50;99.90
70309;DHT22;57716;50.896;4.440;2023-02-01T04:08:58;6.40;99.90
70309;DHT22;57716;50.896;4.440;2023-02-01T04:11:23;6.40;99.90
70309;DHT22;57716;50.896;4.440;2023-02-01T04:13:49;6.50;99.90
70309;DHT22;57716;50.896;4.440;2023-02-01T04:16:15;6.50;99.90
70309;DHT22;57716;50.896;4.440;2023-02-01T04:18:40;6.50;99.90
70309;DHT22;57716;50.896;4.440;2023-02-01T04:21:06;6.50;99.90
70309;DHT22;57716;50.896;4.440;2023-02-01T04:23:32;6.40;99.90
70309;DHT22;57716;50.896;4.440;2023-02-01T04:26:02;6.30;99.90
70309;DHT22;57716;50.896;4.440;2023-02-01T04:28:28;6.30;99.90
70309;DHT22;57716;50.896;4.440;2023-02-01T04:30:54;6.20;99.90
70309;DHT22;57716;50.896;4.440;2023-02-01T04:33:20;6.30;99.90
70309;DHT22;57716;50.896;4.440;2023-02-01T04:35:46;6.30;99.90
70309;DHT22;57716;50.896;4.440;2023-02-01T04:38:12;6.20;99.90
70309;DHT22;57716;50.896;4.440;2023-02-01T04:40:38;6.20;99.90
70309;DHT22;57716;50.896;4.440;2023-02-01T04:43:04;6.20;99.90
70309;DHT22;57716;50.896;4.440;2023-02-01T04:45:30;6.20;99.90
70309;DHT22;57716;50.896;4.440;2023-02-01T04:47:56;6.30;99.90
70309;DHT22;57716;50.896;4.440;2023-02-01T04:50:22;6.30;99.90
70309;DHT22;57716;50.896;4.440;2023-02-01T04:52:49;6.40;99.90
70309;DHT22;57716;50.896;4.440;2023-02-01T04:55:14;6.30;99.90
70309;DHT22;57716;50.896;4.440;2023-02-01T04:57:40;6.30;99.90
70309;DHT22;57716;50.896;4.440;2023-02-01T05:00:08;6.20;99.90
70309;DHT22;57716;50.896;4.440;2023-02-01T05:02:34;6.30;99.90
70309;DHT22;57716;50.896;4.440;2023-02-01T05:05:00;6.30;99.90
70309;DHT22;57716;50.896;4.440;2023-02-01T05:07:26;6.20;99.90
70309;DHT22;57716;50.896;4.440;2023-02-01T05:09:52;6.10;99.90
70309;DHT22;57716;50.896;4.440;2023-02-01T05:12:17;6.00;99.90
70309;DHT22;57716;50.896;4.440;2023-02-01T05:15:02;6.00;99.90
70309;DHT22;57716;50.896;4.440;2023-02-01T05:17:28;6.00;99.90
70309;DHT22;57716;50.896;4.440;2023-02-01T05:19:54;6.00;99.90
70309;DHT22;57716;50.896;4.440;2023-02-01T05:22:20;5.90;99.90
70309;DHT22;57716;50.896;4.440;2023-02-01T05:24:45;6.00;99.90
70309;DHT22;57716;50.896;4.440;2023-02-01T05:27:11;5.90;99.90
70309;DHT22;57716;50.896;4.440;2023-02-01T05:29:37;5.90;99.90
70309;DHT22;57716;50.896;4.440;2023-02-01T05:32:02;5.80;99.90
70309;DHT22;57716;50.896;4.440;2023-02-01T05:34:28;5.90;99.90
70309;DHT22;57716;50.896;4.440;2023-02-01T05:36:54;5.80;99.90
70309;DHT22;57716;50.896;4.440;2023-02-01T05:39:20;5.80;99.90
70309;DHT22;57716;50.896;4.440;2023-02-01T05:41:45;5.80;99.90
70309;DHT22;57716;50.896;4.440;2023-02-01T05:44:11;5.90;99.90
70309;DHT22;57716;50.896;4.440;2023-02-01T05:46:37;5.80;99.90
70309;DHT22;57716;50.896;4.440;2023-02-01T05:49:04;5.90;99.90
70309;DHT22;57716;50.896;4.440;2023-02-01T05:51:30;5.90;99.90
70309;DHT22;57716;50.896;4.440;2023-02-01T05:53:55;5.90;99.90
70309;DHT22;57716;50.896;4.440;2023-02-01T05:56:21;5.90;99.90
70309;DHT22;57716;50.896;4.440;2023-02-01T05:58:47;5.80;99.90
70309;DHT22;57716;50.896;4.440;2023-02-01T06:01:13;5.80;99.90
70309;DHT22;57716;50.896;4.440;2023-02-01T06:03:38;5.80;99.90
70309;DHT22;57716;50.896;4.440;2023-02-01T06:06:04;5.80;99.90
70309;DHT22;57716;50.896;4.440;2023-02-01T06:08:30;5.80;99.90
70309;DHT22;57716;50.896;4.440;2023-02-01T06:11:04;5.70;99.90
70309;DHT22;57716;50.896;4.440;2023-02-01T06:13:30;5.70;99.90
70309;DHT22;57716;50.896;4.440;2023-02-01T06:15:56;5.80;99.90
70309;DHT22;57716;50.896;4.440;2023-02-01T06:18:23;5.80;99.90
70309;DHT22;57716;50.896;4.440;2023-02-01T06:20:56;5.80;99.90
70309;DHT22;57716;50.896;4.440;2023-02-01T06:23:23;5.70;99.90
70309;DHT22;57716;50.896;4.440;2023-02-01T06:25:57;5.70;99.90
70309;DHT22;57716;50.896;4.440;2023-02-01T06:28:25;5.60;99.90
70309;DHT22;57716;50.896;4.440;2023-02-01T06:30:50;5.70;99.90
70309;DHT22;57716;50.896;4.440;2023-02-01T06:33:16;5.60;99.90
70309;DHT22;57716;50.896;4.440;2023-02-01T06:35:43;5.60;99.90
70309;DHT22;57716;50.896;4.440;2023-02-01T06:38:13;5.60;99.90
70309;DHT22;57716;50.896;4.440;2023-02-01T06:40:39;5.60;99.90
70309;DHT22;57716;50.896;4.440;2023-02-01T06:43:06;5.60;99.90
70309;DHT22;57716;50.896;4.440;2023-02-01T06:45:32;5.60;99.90
70309;DHT22;57716;50.896;4.440;2023-02-01T06:47:59;5.70;99.90
70309;DHT22;57716;50.896;4.440;2023-02-01T06:50:26;5.50;99.90
70309;DHT22;57716;50.896;4.440;2023-02-01T06:52:52;5.50;99.90
70309;DHT22;57716;50.896;4.440;2023-02-01T06:55:17;5.60;99.90
70309;DHT22;57716;50.896;4.440;2023-02-01T06:57:43;5.70;99.90
70309;DHT22;57716;50.896;4.440;2023-02-01T07:00:09;5.80;99.90
70309;DHT22;57716;50.896;4.440;2023-02-01T07:02:35;5.70;99.90
70309;DHT22;57716;50.896;4.440;2023-02-01T07:05:01;5.80;99.90
70309;DHT22;57716;50.896;4.440;2023-02-01T07:07:27;5.70;99.90
70309;DHT22;57716;50.896;4.440;2023-02-01T07:09:53;5.60;99.90
70309;DHT22;57716;50.896;4.440;2023-02-01T07:12:19;5.60;99.90
70309;DHT22;57716;50.896;4.440;2023-02-01T07:14:45;5.70;99.90
70309;DHT22;57716;50.896;4.440;2023-02-01T07:17:10;5.60;99.90
70309;DHT22;57716;50.896;4.440;2023-02-01T07:19:36;5.60;99.90
70309;DHT22;57716;50.896;4.440;2023-02-01T07:22:01;5.60;99.90
70309;DHT22;57716;50.896;4.440;2023-02-01T07:24:27;5.70;99.90
70309;DHT22;57716;50.896;4.440;2023-02-01T07:26:53;5.50;99.90
70309;DHT22;57716;50.896;4.440;2023-02-01T07:29:19;5.50;99.90
70309;DHT22;57716;50.896;4.440;2023-02-01T07:31:46;5.60;99.90
70309;DHT22;57716;50.896;4.440;2023-02-01T07:34:11;5.60;99.90
70309;DHT22;57716;50.896;4.440;2023-02-01T07:36:37;5.60;99.90
70309;DHT22;57716;50.896;4.440;2023-02-01T07:39:04;5.60;99.90
70309;DHT22;57716;50.896;4.440;2023-02-01T07:41:29;5.70;99.90
70309;DHT22;57716;50.896;4.440;2023-02-01T07:43:55;5.70;99.90
70309;DHT22;57716;50.896;4.440;2023-02-01T07:46:21;5.80;99.90
70309;DHT22;57716;50.896;4.440;2023-02-01T07:48:47;5.70;99.90
70309;DHT22;57716;50.896;4.440;2023-02-01T07:51:14;5.70;99.90
70309;DHT22;57716;50.896;4.440;2023-02-01T07:53:40;5.80;99.90
70309;DHT22;57716;50.896;4.440;2023-02-01T07:56:19;5.80;99.90
70309;DHT22;57716;50.896;4.440;2023-02-01T07:58:50;5.80;99.90
70309;DHT22;57716;50.896;4.440;2023-02-01T08:01:17;6.00;99.90
70309;DHT22;57716;50.896;4.440;2023-02-01T08:03:50;6.10;99.90
70309;DHT22;57716;50.896;4.440;2023-02-01T08:06:16;6.10;99.90
70309;DHT22;57716;50.896;4.440;2023-02-01T08:08:42;6.20;99.90
70309;DHT22;57716;50.896;4.440;2023-02-01T08:11:10;6.30;99.90
70309;DHT22;57716;50.896;4.440;2023-02-01T08:13:36;6.30;99.90
70309;DHT22;57716;50.896;4.440;2023-02-01T08:16:05;6.40;99.90
70309;DHT22;57716;50.896;4.440;2023-02-01T08:18:31;6.50;99.90
70309;DHT22;57716;50.896;4.440;2023-02-01T08:20:57;6.50;99.90
70309;DHT22;57716;50.896;4.440;2023-02-01T08:23:23;6.50;99.90
70309;DHT22;57716;50.896;4.440;2023-02-01T08:25:49;6.50;99.90
70309;DHT22;57716;50.896;4.440;2023-02-01T08:28:15;6.50;99.90
70309;DHT22;57716;50.896;4.440;2023-02-01T08:30:40;6.50;99.90
70309;DHT22;57716;50.896;4.440;2023-02-01T08:33:09;6.60;99.90
70309;DHT22;57716;50.896;4.440;2023-02-01T08:35:36;6.50;99.90
70309;DHT22;57716;50.896;4.440;2023-02-01T08:38:02;6.60;99.90
70309;DHT22;57716;50.896;4.440;2023-02-01T08:40:28;6.70;99.90
70309;DHT22;57716;50.896;4.440;2023-02-01T08:42:55;6.70;99.90
70309;DHT22;57716;50.896;4.440;2023-02-01T08:45:26;6.70;99.90
70309;DHT22;57716;50.896;4.440;2023-02-01T08:47:54;6.80;99.90
70309;DHT22;57716;50.896;4.440;2023-02-01T08:50:21;6.70;99.90
70309;DHT22;57716;50.896;4.440;2023-02-01T08:52:48;6.80;99.90
70309;DHT22;57716;50.896;4.440;2023-02-01T08:55:14;6.80;99.90
70309;DHT22;57716;50.896;4.440;2023-02-01T08:57:41;6.90;99.90
70309;DHT22;57716;50.896;4.440;2023-02-01T09:00:09;6.90;99.90
70309;DHT22;57716;50.896;4.440;2023-02-01T09:02:36;7.00;99.90
70309;DHT22;57716;50.896;4.440;2023-02-01T09:05:02;7.00;99.90
70309;DHT22;57716;50.896;4.440;2023-02-01T09:07:29;6.80;99.90
70309;DHT22;57716;50.896;4.440;2023-02-01T09:09:54;6.90;99.90
70309;DHT22;57716;50.896;4.440;2023-02-01T09:12:22;6.80;99.90
70309;DHT22;57716;50.896;4.440;2023-02-01T09:14:48;7.00;99.90
70309;DHT22;57716;50.896;4.440;2023-02-01T09:17:14;7.10;99.90
70309;DHT22;57716;50.896;4.440;2023-02-01T09:19:40;7.20;99.90
70309;DHT22;57716;50.896;4.440;2023-02-01T09:22:05;7.20;99.90
70309;DHT22;57716;50.896;4.440;2023-02-01T09:24:31;7.20;99.90
70309;DHT22;57716;50.896;4.440;2023-02-01T09:26:57;7.30;99.90
70309;DHT22;57716;50.896;4.440;2023-02-01T09:29:22;7.30;99.90
70309;DHT22;57716;50.896;4.440;2023-02-01T09:31:48;7.20;99.90
70309;DHT22;57716;50.896;4.440;2023-02-01T09:34:14;7.30;99.90
70309;DHT22;57716;50.896;4.440;2023-02-01T09:36:40;7.30;99.90
70309;DHT22;57716;50.896;4.440;2023-02-01T09:39:05;7.30;99.90
70309;DHT22;57716;50.896;4.440;2023-02-01T09:41:54;7.40;99.90
70309;DHT22;57716;50.896;4.440;2023-02-01T09:46:58;7.70;99.90
70309;DHT22;57716;50.896;4.440;2023-02-01T09:49:33;7.70;99.90
70309;DHT22;57716;50.896;4.440;2023-02-01T09:52:02;7.70;99.90
70309;DHT22;57716;50.896;4.440;2023-02-01T09:54:40;7.70;99.90
70309;DHT22;57716;50.896;4.440;2023-02-01T09:57:33;7.80;99.90
70309;DHT22;57716;50.896;4.440;2023-02-01T10:00:16;7.90;99.90
70309;DHT22;57716;50.896;4.440;2023-02-01T10:02:43;7.90;99.90
70309;DHT22;57716;50.896;4.440;2023-02-01T10:05:15;8.00;99.90
70309;DHT22;57716;50.896;4.440;2023-02-01T10:08:08;8.00;99.90
70309;DHT22;57716;50.896;4.440;2023-02-01T10:10:46;8.00;99.90
70309;DHT22;57716;50.896;4.440;2023-02-01T10:18:40;8.00;99.90
70309;DHT22;57716;50.896;4.440;2023-02-01T10:26:32;8.10;99.90
70309;DHT22;57716;50.896;4.440;2023-02-01T10:29:02;8.20;99.90
70309;DHT22;57716;50.896;4.440;2023-02-01T10:31:31;8.30;99.90
70309;DHT22;57716;50.896;4.440;2023-02-01T10:34:01;8.20;99.90
70309;DHT22;57716;50.896;4.440;2023-02-01T10:38:59;8.50;99.90
70309;DHT22;57716;50.896;4.440;2023-02-01T10:41:31;8.60;99.90
70309;DHT22;57716;50.896;4.440;2023-02-01T10:43:58;8.70;99.90
70309;DHT22;57716;50.896;4.440;2023-02-01T10:46:25;8.70;99.90
70309;DHT22;57716;50.896;4.440;2023-02-01T10:48:55;8.60;99.90
70309;DHT22;57716;50.896;4.440;2023-02-01T10:51:33;8.70;99.90
70309;DHT22;57716;50.896;4.440;2023-02-01T10:54:13;8.80;99.90
70309;DHT22;57716;50.896;4.440;2023-02-01T10:56:43;9.00;99.90
70309;DHT22;57716;50.896;4.440;2023-02-01T10:59:24;9.00;99.90
70309;DHT22;57716;50.896;4.440;2023-02-01T11:01:51;9.10;99.90
70309;DHT22;57716;50.896;4.440;2023-02-01T11:04:24;9.20;99.90
70309;DHT22;57716;50.896;4.440;2023-02-01T11:07:24;9.40;99.90
70309;DHT22;57716;50.896;4.440;2023-02-01T11:09:52;9.40;99.90
70309;DHT22;57716;50.896;4.440;2023-02-01T11:12:36;9.40;99.90
70309;DHT22;57716;50.896;4.440;2023-02-01T11:17:42;9.30;99.90
70309;DHT22;57716;50.896;4.440;2023-02-01T11:20:20;9.20;99.90
70309;DHT22;57716;50.896;4.440;2023-02-01T11:22:48;9.20;99.90
70309;DHT22;57716;50.896;4.440;2023-02-01T11:25:18;9.30;99.90
70309;DHT22;57716;50.896;4.440;2023-02-01T11:27:44;9.20;99.90
70309;DHT22;57716;50.896;4.440;2023-02-01T11:30:16;9.20;99.90
70309;DHT22;57716;50.896;4.440;2023-02-01T11:32:44;9.20;99.90
70309;DHT22;57716;50.896;4.440;2023-02-01T11:35:18;9.30;99.90
70309;DHT22;57716;50.896;4.440;2023-02-01T11:37:52;9.50;99.90
70309;DHT22;57716;50.896;4.440;2023-02-01T11:40:30;9.70;99.90
70309;DHT22;57716;50.896;4.440;2023-02-01T11:46:01;10.20;99.90
70309;DHT22;57716;50.896;4.440;2023-02-01T11:48:31;10.20;99.90
70309;DHT22;57716;50.896;4.440;2023-02-01T11:54:08;10.40;99.90
70309;DHT22;57716;50.896;4.440;2023-02-01T11:59:41;10.20;99.90
70309;DHT22;57716;50.896;4.440;2023-02-01T12:02:20;10.30;99.90
70309;DHT22;57716;50.896;4.440;2023-02-01T12:07:48;10.30;99.90
70309;DHT22;57716;50.896;4.440;2023-02-01T12:24:29;10.20;99.90
70309;DHT22;57716;50.896;4.440;2023-02-01T12:27:13;10.20;99.90
70309;DHT22;57716;50.896;4.440;2023-02-01T12:35:49;10.20;99.90
70309;DHT22;57716;50.896;4.440;2023-02-01T12:41:19;10.00;99.90
70309;DHT22;57716;50.896;4.440;2023-02-01T12:43:51;9.90;99.90
70309;DHT22;57716;50.896;4.440;2023-02-01T12:46:29;9.90;99.90
70309;DHT22;57716;50.896;4.440;2023-02-01T12:51:33;9.90;99.90
70309;DHT22;57716;50.896;4.440;2023-02-01T12:56:57;10.00;99.90
70309;DHT22;57716;50.896;4.440;2023-02-01T12:59:31;10.10;99.90
70309;DHT22;57716;50.896;4.440;2023-02-01T13:05:17;10.10;99.90
70309;DHT22;57716;50.896;4.440;2023-02-01T13:13:09;10.10;99.90
70309;DHT22;57716;50.896;4.440;2023-02-01T13:15:43;10.20;99.90
70309;DHT22;57716;50.896;4.440;2023-02-01T13:18:15;10.30;99.90
70309;DHT22;57716;50.896;4.440;2023-02-01T13:21:20;10.30;99.90
70309;DHT22;57716;50.896;4.440;2023-02-01T13:23:48;10.30;99.90
70309;DHT22;57716;50.896;4.440;2023-02-01T13:26:15;10.40;99.90
70309;DHT22;57716;50.896;4.440;2023-02-01T13:31:31;10.30;99.90
70309;DHT22;57716;50.896;4.440;2023-02-01T13:37:17;10.40;99.90
70309;DHT22;57716;50.896;4.440;2023-02-01T13:40:07;10.30;99.90
70309;DHT22;57716;50.896;4.440;2023-02-01T13:42:45;10.30;99.90
70309;DHT22;57716;50.896;4.440;2023-02-01T13:45:23;10.40;99.90
70309;DHT22;57716;50.896;4.440;2023-02-01T13:47:53;10.40;99.90
70309;DHT22;57716;50.896;4.440;2023-02-01T13:50:30;10.30;99.90
70309;DHT22;57716;50.896;4.440;2023-02-01T13:55:58;10.30;99.90
70309;DHT22;57716;50.896;4.440;2023-02-01T13:58:38;10.30;99.90
70309;DHT22;57716;50.896;4.440;2023-02-01T14:11:45;10.40;99.90
70309;DHT22;57716;50.896;4.440;2023-02-01T14:22:01;10.30;99.90
70309;DHT22;57716;50.896;4.440;2023-02-01T14:24:50;10.30;99.90
70309;DHT22;57716;50.896;4.440;2023-02-01T14:27:21;10.30;99.90
70309;DHT22;57716;50.896;4.440;2023-02-01T14:29:53;10.20;99.90
70309;DHT22;57716;50.896;4.440;2023-02-01T14:32:43;10.20;99.90
70309;DHT22;57716;50.896;4.440;2023-02-01T14:35:28;10.20;99.90
70309;DHT22;57716;50.896;4.440;2023-02-01T14:37:59;10.20;99.90
70309;DHT22;57716;50.896;4.440;2023-02-01T14:40:28;10.20;99.90
70309;DHT22;57716;50.896;4.440;2023-02-01T14:42:54;10.00;99.90
70309;DHT22;57716;50.896;4.440;2023-02-01T14:53:04;10.20;99.90
70309;DHT22;57716;50.896;4.440;2023-02-01T14:55:53;10.10;99.90
70309;DHT22;57716;50.896;4.440;2023-02-01T15:01:30;9.90;99.90
70309;DHT22;57716;50.896;4.440;2023-02-01T15:04:12;9.90;99.90
70309;DHT22;57716;50.896;4.440;2023-02-01T15:06:46;9.90;99.90
70309;DHT22;57716;50.896;4.440;2023-02-01T15:09:33;9.90;99.90
70309;DHT22;57716;50.896;4.440;2023-02-01T15:12:03;9.90;99.90
70309;DHT22;57716;50.896;4.440;2023-02-01T15:14:36;9.90;99.90
70309;DHT22;57716;50.896;4.440;2023-02-01T15:17:15;9.80;99.90
70309;DHT22;57716;50.896;4.440;2023-02-01T15:20:02;9.90;99.90
70309;DHT22;57716;50.896;4.440;2023-02-01T15:22:30;9.90;99.90
70309;DHT22;57716;50.896;4.440;2023-02-01T15:25:00;9.90;99.90
70309;DHT22;57716;50.896;4.440;2023-02-01T15:27:29;9.70;99.90
70309;DHT22;57716;50.896;4.440;2023-02-01T15:30:05;9.70;99.90
70309;DHT22;57716;50.896;4.440;2023-02-01T15:32:36;9.80;99.90
70309;DHT22;57716;50.896;4.440;2023-02-01T15:35:04;9.80;99.90
70309;DHT22;57716;50.896;4.440;2023-02-01T15:37:31;9.70;99.90
70309;DHT22;57716;50.896;4.440;2023-02-01T15:42:52;9.80;99.90
70309;DHT22;57716;50.896;4.440;2023-02-01T15:45:20;9.80;99.90
70309;DHT22;57716;50.896;4.440;2023-02-01T15:47:48;9.60;99.90
70309;DHT22;57716;50.896;4.440;2023-02-01T15:50:18;9.70;99.90
70309;DHT22;57716;50.896;4.440;2023-02-01T15:52:47;9.60;99.90
70309;DHT22;57716;50.896;4.440;2023-02-01T15:57:58;9.60;99.90
70309;DHT22;57716;50.896;4.440;2023-02-01T16:00:27;9.50;99.90
70309;DHT22;57716;50.896;4.440;2023-02-01T16:02:55;9.60;99.90
70309;DHT22;57716;50.896;4.440;2023-02-01T16:05:37;9.50;99.90
70309;DHT22;57716;50.896;4.440;2023-02-01T16:08:21;9.50;99.90
70309;DHT22;57716;50.896;4.440;2023-02-01T16:10:49;9.50;99.90
70309;DHT22;57716;50.896;4.440;2023-02-01T16:13:17;9.50;99.90
70309;DHT22;57716;50.896;4.440;2023-02-01T16:15:44;9.60;99.90
70309;DHT22;57716;50.896;4.440;2023-02-01T16:18:11;9.50;99.90
70309;DHT22;57716;50.896;4.440;2023-02-01T16:20:38;9.50;99.90
70309;DHT22;57716;50.896;4.440;2023-02-01T16:23:05;9.50;99.90
70309;DHT22;57716;50.896;4.440;2023-02-01T16:25:31;9.50;99.90
70309;DHT22;57716;50.896;4.440;2023-02-01T16:27:57;9.50;99.90
70309;DHT22;57716;50.896;4.440;2023-02-01T16:30:23;9.50;99.90
70309;DHT22;57716;50.896;4.440;2023-02-01T16:32:56;9.40;99.90
70309;DHT22;57716;50.896;4.440;2023-02-01T16:35:35;9.50;99.90
70309;DHT22;57716;50.896;4.440;2023-02-01T16:38:15;9.50;99.90
70309;DHT22;57716;50.896;4.440;2023-02-01T16:40:44;9.30;99.90
70309;DHT22;57716;50.896;4.440;2023-02-01T16:43:22;9.30;99.90
70309;DHT22;57716;50.896;4.440;2023-02-01T16:45:49;9.50;99.90
70309;DHT22;57716;50.896;4.440;2023-02-01T16:48:27;9.50;99.90
70309;DHT22;57716;50.896;4.440;2023-02-01T16:50:56;9.50;99.90
70309;DHT22;57716;50.896;4.440;2023-02-01T16:53:23;9.50;99.90
70309;DHT22;57716;50.896;4.440;2023-02-01T16:55:52;9.40;99.90
70309;DHT22;57716;50.896;4.440;2023-02-01T16:58:25;9.40;99.90
70309;DHT22;57716;50.896;4.440;2023-02-01T17:00:51;9.40;99.90
70309;DHT22;57716;50.896;4.440;2023-02-01T17:03:18;9.30;99.90
70309;DHT22;57716;50.896;4.440;2023-02-01T17:05:49;9.40;99.90
70309;DHT22;57716;50.896;4.440;2023-02-01T17:08:28;9.30;99.90
70309;DHT22;57716;50.896;4.440;2023-02-01T17:10:54;9.40;99.90
70309;DHT22;57716;50.896;4.440;2023-02-01T17:13:20;9.50;99.90
70309;DHT22;57716;50.896;4.440;2023-02-01T17:18:49;9.40;99.90
70309;DHT22;57716;50.896;4.440;2023-02-01T17:21:15;9.40;99.90
70309;DHT22;57716;50.896;4.440;2023-02-01T17:23:41;9.40;99.90
70309;DHT22;57716;50.896;4.440;2023-02-01T17:26:09;9.40;99.90
70309;DHT22;57716;50.896;4.440;2023-02-01T17:28:35;9.30;99.90
70309;DHT22;57716;50.896;4.440;2023-02-01T17:31:01;9.30;99.90
70309;DHT22;57716;50.896;4.440;2023-02-01T17:33:33;9.30;99.90
70309;DHT22;57716;50.896;4.440;2023-02-01T17:36:00;9.30;99.90
70309;DHT22;57716;50.896;4.440;2023-02-01T17:38:26;9.20;99.90
70309;DHT22;57716;50.896;4.440;2023-02-01T17:40:52;9.30;99.90
70309;DHT22;57716;50.896;4.440;2023-02-01T17:43:21;9.30;99.90
70309;DHT22;57716;50.896;4.440;2023-02-01T17:48:25;9.40;99.90
70309;DHT22;57716;50.896;4.440;2023-02-01T17:50:51;9.40;99.90
70309;DHT22;57716;50.896;4.440;2023-02-01T17:53:26;9.30;99.90
70309;DHT22;57716;50.896;4.440;2023-02-01T17:55:53;9.30;99.90
70309;DHT22;57716;50.896;4.440;2023-02-01T17:58:19;9.20;99.90
70309;DHT22;57716;50.896;4.440;2023-02-01T18:00:47;9.30;99.90
70309;DHT22;57716;50.896;4.440;2023-02-01T18:03:25;9.30;99.90
70309;DHT22;57716;50.896;4.440;2023-02-01T18:05:53;9.30;99.90
70309;DHT22;57716;50.896;4.440;2023-02-01T18:08:27;9.40;99.90
70309;DHT22;57716;50.896;4.440;2023-02-01T18:10:58;9.40;99.90
70309;DHT22;57716;50.896;4.440;2023-02-01T18:13:30;9.30;99.90
70309;DHT22;57716;50.896;4.440;2023-02-01T18:15:57;9.30;99.90
70309;DHT22;57716;50.896;4.440;2023-02-01T18:18:28;9.30;99.90
70309;DHT22;57716;50.896;4.440;2023-02-01T18:20:55;9.30;99.90
70309;DHT22;57716;50.896;4.440;2023-02-01T18:23:22;9.10;99.90
70309;DHT22;57716;50.896;4.440;2023-02-01T18:25:49;9.10;99.90
70309;DHT22;57716;50.896;4.440;2023-02-01T18:28:17;9.20;99.90
70309;DHT22;57716;50.896;4.440;2023-02-01T18:30:45;9.10;99.90
70309;DHT22;57716;50.896;4.440;2023-02-01T18:33:15;9.10;99.90